sensor_id;sensor_type;location;lat;lon;timestamp;temperature;humidity
72591;SHT31;60625;51.212;5.952;2024-02-15T00:01:16;12.34;90.39
72591;SHT31;60625;51.212;5.952;2024-02-15T00:06:16;12.35;90.31
72591;SHT31;60625;51.212;5.952;2024-02-15T00:11:17;12.37;90.26
72591;SHT31;60625;51.212;5.952;2024-02-15T00:16:18;12.38;90.19
72591;SHT31;60625;51.212;5.952;2024-02-15T00:21:19;12.40;90.06
72591;SHT31;60625;51.212;5.952;2024-02-15T00:26:19;12.42;90.00
72591;SHT31;60625;51.212;5.952;2024-02-15T00:31:21;12.44;89.92
72591;SHT31;60625;51.212;5.952;2024-02-15T00:36:21;12.46;89.96
72591;SHT31;60625;51.212;5.952;2024-02-15T00:41:23;12.48;89.92
72591;SHT31;60625;51.212;5.952;2024-02-15T00:46:23;12.49;89.86
72591;SHT31;60625;51.212;5.952;2024-02-15T00:51:24;12.49;89.83
72591;SHT31;60625;51.212;5.952;2024-02-15T00:56:25;12.47;89.82
72591;SHT31;60625;51.212;5.952;2024-02-15T01:01:26;12.48;89.85
72591;SHT31;60625;51.212;5.952;2024-02-15T01:06:26;12.49;89.80
72591;SHT31;60625;51.212;5.952;2024-02-15T01:11:27;12.48;89.79
72591;SHT31;60625;51.212;5.952;2024-02-15T01:16:32;12.50;89.75
72591;SHT31;60625;51.212;5.952;2024-02-15T01:21:33;12.50;89.64
72591;SHT31;60625;51.212;5.952;2024-02-15T01:26:33;12.51;89.61
72591;SHT31;60625;51.212;5.952;2024-02-15T01:31:34;12.52;89.54
72591;SHT31;60625;51.212;5.952;2024-02-15T01:36:35;12.52;89.49
72591;SHT31;60625;51.212;5.952;2024-02-15T01:41:35;12.54;89.43
72591;SHT31;60625;51.212;5.952;2024-02-15T01:46:36;12.56;89.33
72591;SHT31;60625;51.212;5.952;2024-02-15T01:51:37;12.57;89.17
72591;SHT31;60625;51.212;5.952;2024-02-15T01:56:38;12.56;89.10
72591;SHT31;60625;51.212;5.952;2024-02-15T02:01:38;12.57;89.05
72591;SHT31;60625;51.212;5.952;2024-02-15T02:06:39;12.58;89.00
72591;SHT31;60625;51.212;5.952;2024-02-15T02:11:41;12.58;88.94
72591;SHT31;60625;51.212;5.952;2024-02-15T02:16:48;12.60;88.88
72591;SHT31;60625;51.212;5.952;2024-02-15T02:21:49;12.62;88.77
72591;SHT31;60625;51.212;5.952;2024-02-15T02:26:50;12.62;88.70
72591;SHT31;60625;51.212;5.952;2024-02-15T02:31:52;12.62;88.68
72591;SHT31;60625;51.212;5.952;2024-02-15T02:36:52;12.64;88.60
72591;SHT31;60625;51.212;5.952;2024-02-15T02:41:53;12.63;88.54
72591;SHT31;60625;51.212;5.952;2024-02-15T02:46:53;12.61;88.49
72591;SHT31;60625;51.212;5.952;2024-02-15T02:51:54;12.60;88.49
72591;SHT31;60625;51.212;5.952;2024-02-15T02:56:54;12.58;88.42
72591;SHT31;60625;51.212;5.952;2024-02-15T03:01:55;12.56;88.39
72591;SHT31;60625;51.212;5.952;2024-02-15T03:06:56;12.52;88.31
72591;SHT31;60625;51.212;5.952;2024-02-15T03:11:58;12.50;88.30
72591;SHT31;60625;51.212;5.952;2024-02-15T03:16:58;12.49;88.30
72591;SHT31;60625;51.212;5.952;2024-02-15T03:21:59;12.47;88.27
72591;SHT31;60625;51.212;5.952;2024-02-15T03:27:00;12.45;88.29
72591;SHT31;60625;51.212;5.952;2024-02-15T03:32:04;12.44;88.27
72591;SHT31;60625;51.212;5.952;2024-02-15T03:37:06;12.43;88.21
72591;SHT31;60625;51.212;5.952;2024-02-15T03:42:06;12.40;88.15
72591;SHT31;60625;51.212;5.952;2024-02-15T03:47:07;12.39;88.17
72591;SHT31;60625;51.212;5.952;2024-02-15T03:52:08;12.40;88.11
72591;SHT31;60625;51.212;5.952;2024-02-15T03:57:10;12.43;88.06
72591;SHT31;60625;51.212;5.952;2024-02-15T04:02:12;12.44;88.00
72591;SHT31;60625;51.212;5.952;2024-02-15T04:07:15;12.46;87.92
72591;SHT31;60625;51.212;5.952;2024-02-15T04:12:17;12.48;87.82
72591;SHT31;60625;51.212;5.952;2024-02-15T04:17:18;12.51;87.65
72591;SHT31;60625;51.212;5.952;2024-02-15T04:22:21;12.58;87.38
72591;SHT31;60625;51.212;5.952;2024-02-15T04:27:22;12.64;87.22
72591;SHT31;60625;51.212;5.952;2024-02-15T04:32:22;12.64;87.28
72591;SHT31;60625;51.212;5.952;2024-02-15T04:37:23;12.63;87.40
72591;SHT31;60625;51.212;5.952;2024-02-15T04:42:23;12.61;87.43
72591;SHT31;60625;51.212;5.952;2024-02-15T04:47:26;12.59;87.43
72591;SHT31;60625;51.212;5.952;2024-02-15T04:52:28;12.56;87.46
72591;SHT31;60625;51.212;5.952;2024-02-15T04:57:29;12.56;87.42
72591;SHT31;60625;51.212;5.952;2024-02-15T05:02:30;12.56;87.39
72591;SHT31;60625;51.212;5.952;2024-02-15T05:07:30;12.56;87.38
72591;SHT31;60625;51.212;5.952;2024-02-15T05:12:31;12.55;87.38
72591;SHT31;60625;51.212;5.952;2024-02-15T05:17:33;12.55;87.41
72591;SHT31;60625;51.212;5.952;2024-02-15T05:22:34;12.53;87.59
72591;SHT31;60625;51.212;5.952;2024-02-15T05:27:36;12.52;87.78
72591;SHT31;60625;51.212;5.952;2024-02-15T05:32:37;12.50;88.01
72591;SHT31;60625;51.212;5.952;2024-02-15T05:37:41;12.47;88.18
72591;SHT31;60625;51.212;5.952;2024-02-15T05:42:42;12.46;88.21
72591;SHT31;60625;51.212;5.952;2024-02-15T05:47:45;12.45;88.29
72591;SHT31;60625;51.212;5.952;2024-02-15T05:52:49;12.44;88.29
72591;SHT31;60625;51.212;5.952;2024-02-15T05:57:52;12.43;88.31
72591;SHT31;60625;51.212;5.952;2024-02-15T06:02:53;12.42;88.35
72591;SHT31;60625;51.212;5.952;2024-02-15T06:07:55;12.41;88.41
72591;SHT31;60625;51.212;5.952;2024-02-15T06:12:57;12.40;88.43
72591;SHT31;60625;51.212;5.952;2024-02-15T06:18:01;12.40;88.40
72591;SHT31;60625;51.212;5.952;2024-02-15T06:23:09;12.41;88.40
72591;SHT31;60625;51.212;5.952;2024-02-15T06:28:10;12.42;88.36
72591;SHT31;60625;51.212;5.952;2024-02-15T06:33:19;12.40;88.57
72591;SHT31;60625;51.212;5.952;2024-02-15T06:38:40;12.37;88.68
72591;SHT31;60625;51.212;5.952;2024-02-15T06:43:59;12.34;88.84
72591;SHT31;60625;51.212;5.952;2024-02-15T06:48:59;12.31;88.96
72591;SHT31;60625;51.212;5.952;2024-02-15T06:54:00;12.27;89.03
72591;SHT31;60625;51.212;5.952;2024-02-15T06:59:02;12.25;89.16
72591;SHT31;60625;51.212;5.952;2024-02-15T07:04:02;12.23;89.20
72591;SHT31;60625;51.212;5.952;2024-02-15T07:09:06;12.22;89.23
72591;SHT31;60625;51.212;5.952;2024-02-15T07:14:07;12.21;89.29
72591;SHT31;60625;51.212;5.952;2024-02-15T07:19:09;12.20;89.33
72591;SHT31;60625;51.212;5.952;2024-02-15T07:24:09;12.19;89.41
72591;SHT31;60625;51.212;5.952;2024-02-15T07:29:10;12.17;89.52
72591;SHT31;60625;51.212;5.952;2024-02-15T07:34:11;12.15;89.65
72591;SHT31;60625;51.212;5.952;2024-02-15T07:39:11;12.14;89.79
72591;SHT31;60625;51.212;5.952;2024-02-15T07:44:12;12.16;89.90
72591;SHT31;60625;51.212;5.952;2024-02-15T07:49:12;12.16;89.90
72591;SHT31;60625;51.212;5.952;2024-02-15T07:54:13;12.18;89.92
72591;SHT31;60625;51.212;5.952;2024-02-15T07:59:14;12.19;89.94
72591;SHT31;60625;51.212;5.952;2024-02-15T08:04:18;12.21;89.96
72591;SHT31;60625;51.212;5.952;2024-02-15T08:09:21;12.23;90.00
72591;SHT31;60625;51.212;5.952;2024-02-15T08:14:24;12.27;90.00
72591;SHT31;60625;51.212;5.952;2024-02-15T08:19:24;12.31;89.97
72591;SHT31;60625;51.212;5.952;2024-02-15T08:24:25;12.34;89.91
72591;SHT31;60625;51.212;5.952;2024-02-15T08:29:25;12.36;89.82
72591;SHT31;60625;51.212;5.952;2024-02-15T08:34:26;12.39;89.73
72591;SHT31;60625;51.212;5.952;2024-02-15T08:39:28;12.43;89.69
72591;SHT31;60625;51.212;5.952;2024-02-15T08:44:28;12.46;89.60
72591;SHT31;60625;51.212;5.952;2024-02-15T08:49:29;12.50;89.56
72591;SHT31;60625;51.212;5.952;2024-02-15T08:54:31;12.55;89.36
72591;SHT31;60625;51.212;5.952;2024-02-15T08:59:33;12.62;89.09
72591;SHT31;60625;51.212;5.952;2024-02-15T09:04:33;12.69;88.79
72591;SHT31;60625;51.212;5.952;2024-02-15T09:09:34;12.76;88.31
72591;SHT31;60625;51.212;5.952;2024-02-15T09:14:37;12.86;87.88
72591;SHT31;60625;51.212;5.952;2024-02-15T09:19:38;12.94;87.46
72591;SHT31;60625;51.212;5.952;2024-02-15T09:24:39;13.04;86.90
72591;SHT31;60625;51.212;5.952;2024-02-15T09:29:39;13.14;86.04
72591;SHT31;60625;51.212;5.952;2024-02-15T09:34:40;13.25;85.42
72591;SHT31;60625;51.212;5.952;2024-02-15T09:39:42;13.36;84.88
72591;SHT31;60625;51.212;5.952;2024-02-15T09:44:42;13.45;84.06
72591;SHT31;60625;51.212;5.952;2024-02-15T09:49:45;13.55;83.63
72591;SHT31;60625;51.212;5.952;2024-02-15T09:54:48;13.65;83.28
72591;SHT31;60625;51.212;5.952;2024-02-15T09:59:51;13.76;83.08
72591;SHT31;60625;51.212;5.952;2024-02-15T10:04:53;13.88;82.32
72591;SHT31;60625;51.212;5.952;2024-02-15T10:09:56;14.00;81.38
72591;SHT31;60625;51.212;5.952;2024-02-15T10:14:57;14.11;81.14
72591;SHT31;60625;51.212;5.952;2024-02-15T10:20:04;14.23;81.21
72591;SHT31;60625;51.212;5.952;2024-02-15T10:25:10;14.35;80.60
72591;SHT31;60625;51.212;5.952;2024-02-15T10:35:21;14.59;80.22
72591;SHT31;60625;51.212;5.952;2024-02-15T10:40:22;14.68;80.04
72591;SHT31;60625;51.212;5.952;2024-02-15T10:45:23;14.81;79.69
72591;SHT31;60625;51.212;5.952;2024-02-15T10:50:25;15.00;79.56
72591;SHT31;60625;51.212;5.952;2024-02-15T10:55:35;15.21;79.26
72591;SHT31;60625;51.212;5.952;2024-02-15T11:00:51;15.45;78.46
72591;SHT31;60625;51.212;5.952;2024-02-15T11:05:54;15.68;77.60
72591;SHT31;60625;51.212;5.952;2024-02-15T11:11:00;15.87;76.64
72591;SHT31;60625;51.212;5.952;2024-02-15T11:16:04;16.02;76.03
72591;SHT31;60625;51.212;5.952;2024-02-15T11:21:06;16.17;75.67
72591;SHT31;60625;51.212;5.952;2024-02-15T11:26:08;16.31;75.14
72591;SHT31;60625;51.212;5.952;2024-02-15T11:36:55;16.53;73.71
72591;SHT31;60625;51.212;5.952;2024-02-15T11:42:24;16.60;73.46
72591;SHT31;60625;51.212;5.952;2024-02-15T11:47:29;16.69;73.00
72591;SHT31;60625;51.212;5.952;2024-02-15T11:52:33;16.77;72.39
72591;SHT31;60625;51.212;5.952;2024-02-15T11:57:34;16.87;72.07
72591;SHT31;60625;51.212;5.952;2024-02-15T12:02:48;16.94;71.03
72591;SHT31;60625;51.212;5.952;2024-02-15T12:08:07;16.99;70.88
72591;SHT31;60625;51.212;5.952;2024-02-15T12:13:26;17.07;71.03
72591;SHT31;60625;51.212;5.952;2024-02-15T12:18:47;17.13;70.42
72591;SHT31;60625;51.212;5.952;2024-02-15T12:23:52;17.14;70.08
72591;SHT31;60625;51.212;5.952;2024-02-15T12:28:53;17.19;70.20
72591;SHT31;60625;51.212;5.952;2024-02-15T12:34:05;17.22;70.12
72591;SHT31;60625;51.212;5.952;2024-02-15T12:39:08;17.26;70.29
72591;SHT31;60625;51.212;5.952;2024-02-15T12:44:15;17.31;69.83
72591;SHT31;60625;51.212;5.952;2024-02-15T12:49:27;17.48;69.54
72591;SHT31;60625;51.212;5.952;2024-02-15T12:54:30;17.62;68.94
72591;SHT31;60625;51.212;5.952;2024-02-15T12:59:32;17.72;68.29
72591;SHT31;60625;51.212;5.952;2024-02-15T13:04:33;17.80;67.82
72591;SHT31;60625;51.212;5.952;2024-02-15T13:09:33;17.79;67.26
72591;SHT31;60625;51.212;5.952;2024-02-15T13:14:34;17.82;67.26
72591;SHT31;60625;51.212;5.952;2024-02-15T13:19:35;18.08;67.26
72591;SHT31;60625;51.212;5.952;2024-02-15T13:24:36;18.28;66.82
72591;SHT31;60625;51.212;5.952;2024-02-15T13:29:39;18.31;66.87
72591;SHT31;60625;51.212;5.952;2024-02-15T13:34:41;18.30;66.85
72591;SHT31;60625;51.212;5.952;2024-02-15T13:39:48;18.21;66.53
72591;SHT31;60625;51.212;5.952;2024-02-15T13:44:51;18.03;66.51
72591;SHT31;60625;51.212;5.952;2024-02-15T13:49:51;17.88;66.84
72591;SHT31;60625;51.212;5.952;2024-02-15T13:54:52;17.75;67.04
72591;SHT31;60625;51.212;5.952;2024-02-15T13:59:54;17.63;66.99
72591;SHT31;60625;51.212;5.952;2024-02-15T14:04:54;17.53;67.25
72591;SHT31;60625;51.212;5.952;2024-02-15T14:09:55;17.49;67.32
72591;SHT31;60625;51.212;5.952;2024-02-15T14:14:56;17.46;67.31
72591;SHT31;60625;51.212;5.952;2024-02-15T14:19:57;17.42;67.41
72591;SHT31;60625;51.212;5.952;2024-02-15T14:25:04;17.36;67.49
72591;SHT31;60625;51.212;5.952;2024-02-15T14:30:08;17.28;67.71
72591;SHT31;60625;51.212;5.952;2024-02-15T14:35:32;17.17;68.00
72591;SHT31;60625;51.212;5.952;2024-02-15T14:40:35;17.09;68.71
72591;SHT31;60625;51.212;5.952;2024-02-15T14:45:40;17.03;69.17
72591;SHT31;60625;51.212;5.952;2024-02-15T14:50:41;17.00;69.63
72591;SHT31;60625;51.212;5.952;2024-02-15T14:55:42;17.01;69.74
72591;SHT31;60625;51.212;5.952;2024-02-15T15:00:50;16.98;69.68
72591;SHT31;60625;51.212;5.952;2024-02-15T15:05:52;16.95;69.94
72591;SHT31;60625;51.212;5.952;2024-02-15T15:11:11;16.93;70.15
72591;SHT31;60625;51.212;5.952;2024-02-15T15:16:30;16.91;70.26
72591;SHT31;60625;51.212;5.952;2024-02-15T15:21:31;16.89;70.25
72591;SHT31;60625;51.212;5.952;2024-02-15T15:26:32;16.86;69.88
72591;SHT31;60625;51.212;5.952;2024-02-15T15:31:34;16.84;70.07
72591;SHT31;60625;51.212;5.952;2024-02-15T15:36:36;16.90;70.08
72591;SHT31;60625;51.212;5.952;2024-02-15T15:41:37;16.97;70.42
72591;SHT31;60625;51.212;5.952;2024-02-15T15:46:37;17.04;69.79
72591;SHT31;60625;51.212;5.952;2024-02-15T15:51:41;17.06;69.25
72591;SHT31;60625;51.212;5.952;2024-02-15T15:56:42;17.01;68.99
72591;SHT31;60625;51.212;5.952;2024-02-15T16:01:52;16.91;68.51
72591;SHT31;60625;51.212;5.952;2024-02-15T16:06:53;16.78;68.04
72591;SHT31;60625;51.212;5.952;2024-02-15T16:11:57;16.63;67.61
72591;SHT31;60625;51.212;5.952;2024-02-15T16:16:59;16.49;67.71
72591;SHT31;60625;51.212;5.952;2024-02-15T16:22:00;16.31;67.93
72591;SHT31;60625;51.212;5.952;2024-02-15T16:27:05;16.11;68.38
72591;SHT31;60625;51.212;5.952;2024-02-15T16:32:06;15.94;68.83
72591;SHT31;60625;51.212;5.952;2024-02-15T16:37:08;15.79;69.10
72591;SHT31;60625;51.212;5.952;2024-02-15T16:42:09;15.65;69.60
72591;SHT31;60625;51.212;5.952;2024-02-15T16:47:14;15.44;69.99
72591;SHT31;60625;51.212;5.952;2024-02-15T16:52:16;15.31;69.92
72591;SHT31;60625;51.212;5.952;2024-02-15T16:57:17;15.22;70.43
72591;SHT31;60625;51.212;5.952;2024-02-15T17:02:18;15.06;70.86
72591;SHT31;60625;51.212;5.952;2024-02-15T17:07:18;14.97;71.04
72591;SHT31;60625;51.212;5.952;2024-02-15T17:12:19;14.93;71.15
72591;SHT31;60625;51.212;5.952;2024-02-15T17:17:20;14.88;71.25
72591;SHT31;60625;51.212;5.952;2024-02-15T17:22:20;14.85;71.25
72591;SHT31;60625;51.212;5.952;2024-02-15T17:27:23;14.82;71.39
72591;SHT31;60625;51.212;5.952;2024-02-15T17:32:23;14.76;71.65
72591;SHT31;60625;51.212;5.952;2024-02-15T17:37:24;14.69;71.92
72591;SHT31;60625;51.212;5.952;2024-02-15T17:42:25;14.60;72.14
72591;SHT31;60625;51.212;5.952;2024-02-15T17:47:25;14.52;72.18
72591;SHT31;60625;51.212;5.952;2024-02-15T17:52:25;14.42;72.18
72591;SHT31;60625;51.212;5.952;2024-02-15T17:57:27;14.33;72.27
72591;SHT31;60625;51.212;5.952;2024-02-15T18:02:27;14.29;72.42
72591;SHT31;60625;51.212;5.952;2024-02-15T18:07:29;14.23;72.63
72591;SHT31;60625;51.212;5.952;2024-02-15T18:12:32;14.20;72.82
72591;SHT31;60625;51.212;5.952;2024-02-15T18:17:32;14.16;72.85
72591;SHT31;60625;51.212;5.952;2024-02-15T18:22:33;14.12;73.11
72591;SHT31;60625;51.212;5.952;2024-02-15T18:27:33;14.08;73.32
72591;SHT31;60625;51.212;5.952;2024-02-15T18:32:38;14.02;73.51
72591;SHT31;60625;51.212;5.952;2024-02-15T18:37:40;13.95;73.69
72591;SHT31;60625;51.212;5.952;2024-02-15T18:42:45;13.89;73.79
72591;SHT31;60625;51.212;5.952;2024-02-15T18:47:48;13.81;74.01
72591;SHT31;60625;51.212;5.952;2024-02-15T18:52:50;13.74;74.18
72591;SHT31;60625;51.212;5.952;2024-02-15T18:57:50;13.67;74.25
72591;SHT31;60625;51.212;5.952;2024-02-15T19:02:53;13.60;74.48
72591;SHT31;60625;51.212;5.952;2024-02-15T19:07:53;13.53;74.62
72591;SHT31;60625;51.212;5.952;2024-02-15T19:12:54;13.47;74.74
72591;SHT31;60625;51.212;5.952;2024-02-15T19:17:55;13.42;74.93
72591;SHT31;60625;51.212;5.952;2024-02-15T19:22:55;13.38;75.00
72591;SHT31;60625;51.212;5.952;2024-02-15T19:27:56;13.33;75.03
72591;SHT31;60625;51.212;5.952;2024-02-15T19:32:57;13.25;75.26
72591;SHT31;60625;51.212;5.952;2024-02-15T19:37:58;13.21;75.60
72591;SHT31;60625;51.212;5.952;2024-02-15T19:42:59;13.17;75.65
72591;SHT31;60625;51.212;5.952;2024-02-15T19:47:59;13.11;75.78
72591;SHT31;60625;51.212;5.952;2024-02-15T19:53:00;13.03;75.97
72591;SHT31;60625;51.212;5.952;2024-02-15T19:58:01;12.98;76.20
72591;SHT31;60625;51.212;5.952;2024-02-15T20:03:02;12.94;76.24
72591;SHT31;60625;51.212;5.952;2024-02-15T20:08:04;12.87;76.39
72591;SHT31;60625;51.212;5.952;2024-02-15T20:13:07;12.82;76.44
72591;SHT31;60625;51.212;5.952;2024-02-15T20:18:07;12.77;76.47
72591;SHT31;60625;51.212;5.952;2024-02-15T20:23:08;12.70;76.65
72591;SHT31;60625;51.212;5.952;2024-02-15T20:28:08;12.65;76.71
72591;SHT31;60625;51.212;5.952;2024-02-15T20:33:10;12.56;76.89
72591;SHT31;60625;51.212;5.952;2024-02-15T20:38:18;12.48;77.01
72591;SHT31;60625;51.212;5.952;2024-02-15T20:43:23;12.41;77.27
72591;SHT31;60625;51.212;5.952;2024-02-15T20:48:23;12.37;77.49
72591;SHT31;60625;51.212;5.952;2024-02-15T20:53:24;12.30;77.75
72591;SHT31;60625;51.212;5.952;2024-02-15T20:58:25;12.23;77.96
72591;SHT31;60625;51.212;5.952;2024-02-15T21:03:27;12.16;78.14
72591;SHT31;60625;51.212;5.952;2024-02-15T21:08:28;12.09;78.19
72591;SHT31;60625;51.212;5.952;2024-02-15T21:13:32;12.02;78.36
72591;SHT31;60625;51.212;5.952;2024-02-15T21:18:32;11.99;78.46
72591;SHT31;60625;51.212;5.952;2024-02-15T21:23:33;11.94;78.54
72591;SHT31;60625;51.212;5.952;2024-02-15T21:28:35;11.89;78.83
72591;SHT31;60625;51.212;5.952;2024-02-15T21:33:45;11.85;79.02
72591;SHT31;60625;51.212;5.952;2024-02-15T21:38:46;11.82;79.17
72591;SHT31;60625;51.212;5.952;2024-02-15T21:43:46;11.79;79.15
72591;SHT31;60625;51.212;5.952;2024-02-15T21:48:47;11.79;79.28
72591;SHT31;60625;51.212;5.952;2024-02-15T21:53:50;11.79;79.32
72591;SHT31;60625;51.212;5.952;2024-02-15T21:58:50;11.78;79.39
72591;SHT31;60625;51.212;5.952;2024-02-15T22:03:52;11.78;79.37
72591;SHT31;60625;51.212;5.952;2024-02-15T22:08:52;11.76;79.34
72591;SHT31;60625;51.212;5.952;2024-02-15T22:13:53;11.76;79.36
72591;SHT31;60625;51.212;5.952;2024-02-15T22:18:53;11.76;79.35
72591;SHT31;60625;51.212;5.952;2024-02-15T22:23:54;11.76;79.38
72591;SHT31;60625;51.212;5.952;2024-02-15T22:28:54;11.76;79.39
72591;SHT31;60625;51.212;5.952;2024-02-15T22:33:55;11.74;79.36
72591;SHT31;60625;51.212;5.952;2024-02-15T22:38:56;11.75;79.36
72591;SHT31;60625;51.212;5.952;2024-02-15T22:43:57;11.74;79.39
72591;SHT31;60625;51.212;5.952;2024-02-15T22:48:57;11.74;79.42
72591;SHT31;60625;51.212;5.952;2024-02-15T22:53:58;11.73;79.50
72591;SHT31;60625;51.212;5.952;2024-02-15T22:59:01;11.73;79.48
72591;SHT31;60625;51.212;5.952;2024-02-15T23:04:02;11.73;79.40
72591;SHT31;60625;51.212;5.952;2024-02-15T23:09:02;11.73;79.46
72591;SHT31;60625;51.212;5.952;2024-02-15T23:14:03;11.73;79.50
72591;SHT31;60625;51.212;5.952;2024-02-15T23:19:06;11.73;79.42
72591;SHT31;60625;51.212;5.952;2024-02-15T23:24:06;11.73;79.43
72591;SHT31;60625;51.212;5.952;2024-02-15T23:29:07;11.73;79.35
72591;SHT31;60625;51.212;5.952;2024-02-15T23:34:10;11.73;79.29
72591;SHT31;60625;51.212;5.952;2024-02-15T23:39:11;11.73;79.29
72591;SHT31;60625;51.212;5.952;2024-02-15T23:44:33;11.71;79.23
72591;SHT31;60625;51.212;5.952;2024-02-15T23:49:33;11.70;79.14
72591;SHT31;60625;51.212;5.952;2024-02-15T23:54:37;11.68;79.11
72591;SHT31;60625;51.212;5.952;2024-02-15T23:59:38;11.65;79.09
